createdAt,value
2023-04-27T00:01:19.377Z,100731.19
2023-04-27T00:05:21.117Z,100725.66
2023-04-27T00:09:22.940Z,100723.00
2023-04-27T00:13:24.465Z,100716.06
2023-04-27T00:17:26.162Z,100711.44
2023-04-27T00:21:27.738Z,100712.91
2023-04-27T00:25:29.334Z,100716.81
2023-04-27T00:29:31.028Z,100720.63
2023-04-27T00:33:32.575Z,100719.19
2023-04-27T00:37:34.086Z,100719.41
2023-04-27T00:41:41.502Z,100710.53
2023-04-27T00:45:43.691Z,100713.59
2023-04-27T00:49:45.316Z,100723.63
2023-04-27T00:53:46.913Z,100718.44
2023-04-27T00:57:50.021Z,100722.44
2023-04-27T01:01:52.814Z,100730.66
2023-04-27T01:05:54.502Z,100727.19
2023-04-27T01:09:56.335Z,100732.16
2023-04-27T01:13:58.024Z,100728.47
2023-04-27T01:18:01.348Z,100728.63
2023-04-27T01:22:03.125Z,100728.03
2023-04-27T01:26:04.667Z,100729.47
2023-04-27T01:30:07.014Z,100730.53
2023-04-27T01:34:08.621Z,100725.34
2023-04-27T01:38:10.268Z,100725.34
2023-04-27T01:42:11.760Z,100727.00
2023-04-27T01:46:15.606Z,100721.50
2023-04-27T01:50:17.188Z,100724.63
2023-04-27T01:54:20.381Z,100725.50
2023-04-27T01:58:22.069Z,100721.34
2023-04-27T02:02:23.780Z,100725.25
2023-04-27T02:06:25.523Z,100737.06
2023-04-27T02:10:27.131Z,100746.13
2023-04-27T02:14:31.892Z,100734.78
2023-04-27T02:18:33.727Z,100729.09
2023-04-27T02:22:35.488Z,100736.00
2023-04-27T02:26:37.105Z,100740.06
2023-04-27T02:30:39.195Z,100746.50
2023-04-27T02:34:41.408Z,100746.75
2023-04-27T02:38:43.018Z,100744.31
2023-04-27T02:42:45.207Z,100750.59
2023-04-27T02:46:46.825Z,100750.81
2023-04-27T02:50:48.465Z,100748.31
2023-04-27T02:54:49.986Z,100749.56
2023-04-27T02:58:51.561Z,100757.47
2023-04-27T03:02:53.225Z,100758.97
2023-04-27T03:06:54.813Z,100748.47
2023-04-27T03:10:56.365Z,100745.19
2023-04-27T03:14:59.527Z,100750.53
2023-04-27T03:19:01.665Z,100747.50
2023-04-27T03:23:05.628Z,100748.81
2023-04-27T03:27:07.285Z,100742.63
2023-04-27T03:31:10.695Z,100755.25
2023-04-27T03:35:12.278Z,100762.75
2023-04-27T03:39:14.112Z,100760.44
2023-04-27T03:43:16.065Z,100750.47
2023-04-27T03:47:17.628Z,100746.19
2023-04-27T03:51:19.265Z,100752.94
2023-04-27T03:55:21.734Z,100753.19
2023-04-27T03:59:24.290Z,100748.75
2023-04-27T04:03:27.363Z,100744.19
2023-04-27T04:07:28.956Z,100740.53
2023-04-27T04:11:30.938Z,100755.59
2023-04-27T04:15:34.679Z,100748.75
2023-04-27T04:19:36.513Z,100744.41
2023-04-27T04:23:38.422Z,100749.34
2023-04-27T04:27:40.839Z,100760.94
2023-04-27T04:31:42.699Z,100755.97
2023-04-27T04:35:44.524Z,100755.50
2023-04-27T04:39:46.037Z,100762.78
2023-04-27T04:43:49.455Z,100774.84
2023-04-27T04:47:54.429Z,100776.28
2023-04-27T04:51:56.365Z,100773.75
2023-04-27T04:55:58.273Z,100773.28
2023-04-27T04:59:59.892Z,100773.13
2023-04-27T05:04:02.158Z,100775.19
2023-04-27T05:08:04.033Z,100765.94
2023-04-27T05:12:06.935Z,100761.75
2023-04-27T05:16:08.779Z,100765.81
2023-04-27T05:20:10.647Z,100773.41
2023-04-27T05:24:13.071Z,100783.06
2023-04-27T05:28:14.709Z,100793.75
2023-04-27T05:32:16.459Z,100791.22
2023-04-27T05:36:17.995Z,100793.63
2023-04-27T05:40:19.601Z,100795.13
2023-04-27T05:44:21.468Z,100796.13
2023-04-27T05:48:23.103Z,100800.69
2023-04-27T05:52:31.023Z,100803.47
2023-04-27T05:56:32.655Z,100806.19
2023-04-27T06:00:34.226Z,100802.88
2023-04-27T06:04:37.228Z,100809.31
2023-04-27T06:08:39.515Z,100804.19
2023-04-27T06:12:42.224Z,100804.19
2023-04-27T06:16:44.556Z,100810.88
2023-04-27T06:20:47.022Z,100815.75
2023-04-27T06:24:48.594Z,100816.50
2023-04-27T06:28:50.250Z,100826.75
2023-04-27T06:32:52.629Z,100828.94
2023-04-27T06:36:55.594Z,100834.88
2023-04-27T06:40:57.216Z,100834.03
2023-04-27T06:44:58.919Z,100833.06
2023-04-27T06:49:01.612Z,100818.44
2023-04-27T06:53:03.233Z,100829.84
2023-04-27T06:57:04.920Z,100829.22
2023-04-27T07:01:06.838Z,100833.38
2023-04-27T07:05:08.654Z,100835.00
2023-04-27T07:09:20.024Z,100836.38
2023-04-27T07:13:27.951Z,100827.13
2023-04-27T07:17:29.770Z,100829.75
2023-04-27T07:21:31.733Z,100833.00
2023-04-27T07:25:33.332Z,100842.97
2023-04-27T07:29:35.283Z,100835.38
2023-04-27T07:33:37.534Z,100835.81
2023-04-27T07:37:40.310Z,100831.00
2023-04-27T07:41:41.929Z,100832.06
2023-04-27T07:45:44.012Z,100830.81
2023-04-27T07:49:46.453Z,100822.06
2023-04-27T07:53:48.174Z,100829.19
2023-04-27T07:57:56.980Z,100815.19
2023-04-27T08:02:15.052Z,100820.22
2023-04-27T08:06:20.752Z,100816.47
2023-04-27T08:10:23.379Z,100815.81
2023-04-27T08:14:25.115Z,100812.91
2023-04-27T08:18:27.186Z,100817.25
2023-04-27T08:22:28.777Z,100816.53
2023-04-27T08:26:30.563Z,100813.25
2023-04-27T08:30:32.429Z,100810.31
2023-04-27T08:34:33.968Z,100820.31
2023-04-27T08:38:35.889Z,100813.19
2023-04-27T08:42:37.506Z,100795.63
2023-04-27T08:46:39.426Z,100799.84
2023-04-27T08:50:44.821Z,100798.00
2023-04-27T08:54:46.542Z,100795.97
2023-04-27T08:58:48.260Z,100793.16
2023-04-27T09:02:49.957Z,100788.59
2023-04-27T09:06:51.586Z,100793.66
2023-04-27T09:10:54.824Z,100795.56
2023-04-27T09:15:01.300Z,100794.25
2023-04-27T09:19:02.866Z,100795.09
2023-04-27T09:23:04.422Z,100786.38
2023-04-27T09:27:07.324Z,100777.91
2023-04-27T09:31:09.613Z,100775.84
2023-04-27T09:35:21.680Z,100769.84
2023-04-27T09:39:23.331Z,100762.19
2023-04-27T09:43:27.248Z,100761.94
2023-04-27T09:47:29.177Z,100767.91
2023-04-27T09:51:31.854Z,100756.94
2023-04-27T09:55:55.148Z,100758.00
2023-04-27T10:00:29.172Z,100756.66
2023-04-27T10:04:36.765Z,100750.41
2023-04-27T10:08:38.843Z,100758.53
2023-04-27T10:12:40.762Z,100749.13
2023-04-27T10:16:56.079Z,100756.97
2023-04-27T10:21:09.347Z,100749.66
2023-04-27T10:25:22.203Z,100741.50
2023-04-27T10:29:34.777Z,100743.41
2023-04-27T10:33:44.230Z,100742.47
2023-04-27T10:37:46.892Z,100744.22
2023-04-27T10:41:52.764Z,100743.28
2023-04-27T10:45:55.692Z,100738.53
2023-04-27T10:49:57.307Z,100739.69
2023-04-27T10:54:00.635Z,100736.63
2023-04-27T10:58:02.520Z,100731.75
2023-04-27T11:02:04.286Z,100729.28
2023-04-27T11:06:06.686Z,100724.41
2023-04-27T11:10:09.167Z,100717.69
2023-04-27T11:14:15.266Z,100716.16
2023-04-27T11:18:19.203Z,100711.06
2023-04-27T11:22:20.836Z,100698.28
2023-04-27T11:26:26.572Z,100703.47
2023-04-27T11:30:28.404Z,100698.44
2023-04-27T11:34:34.365Z,100681.38
2023-04-27T11:38:36.060Z,100688.44
2023-04-27T11:42:37.709Z,100686.03
2023-04-27T11:46:41.175Z,100682.53
2023-04-27T11:50:53.384Z,100680.81
2023-04-27T11:54:56.645Z,100678.34
2023-04-27T11:58:58.224Z,100667.34
2023-04-27T12:02:59.900Z,100660.59
2023-04-27T12:07:03.839Z,100652.97
2023-04-27T12:11:05.539Z,100653.97
2023-04-27T12:15:08.601Z,100651.41
2023-04-27T12:19:10.319Z,100648.91
2023-04-27T12:23:11.872Z,100642.13
2023-04-27T12:27:13.457Z,100636.97
2023-04-27T12:31:26.920Z,100635.34
2023-04-27T12:35:31.834Z,100625.03
2023-04-27T12:39:33.714Z,100614.75
2023-04-27T12:43:37.470Z,100626.09
2023-04-27T12:47:58.163Z,100626.97
2023-04-27T12:52:01.882Z,100623.50
2023-04-27T12:56:04.597Z,100622.66
2023-04-27T13:00:10.203Z,100614.88
2023-04-27T13:04:19.481Z,100607.97
2023-04-27T13:08:21.638Z,100603.63
2023-04-27T13:12:24.384Z,100594.94
2023-04-27T13:16:26.474Z,100594.94
2023-04-27T13:20:28.085Z,100599.25
2023-04-27T13:24:30.353Z,100596.66
2023-04-27T13:28:31.855Z,100581.94
2023-04-27T13:32:33.685Z,100593.22
2023-04-27T13:36:35.380Z,100584.53
2023-04-27T13:40:37.046Z,100580.19
2023-04-27T13:44:38.683Z,100583.69
2023-04-27T13:48:40.734Z,100584.56
2023-04-27T13:52:42.308Z,100585.41
2023-04-27T13:56:43.852Z,100585.38
2023-04-27T14:00:48.011Z,100587.09
2023-04-27T14:04:49.877Z,100594.03
2023-04-27T14:08:51.988Z,100585.38
2023-04-27T14:12:56.500Z,100578.47
2023-04-27T14:16:58.151Z,100585.38
2023-04-27T14:20:59.907Z,100582.75
2023-04-27T14:25:01.569Z,100577.50
2023-04-27T14:29:03.220Z,100573.94
2023-04-27T14:33:04.909Z,100577.31
2023-04-27T14:37:06.662Z,100583.44
2023-04-27T14:41:08.943Z,100561.78
2023-04-27T14:45:11.233Z,100575.75
2023-04-27T14:49:13.419Z,100571.47
2023-04-27T14:53:15.210Z,100568.00
2023-04-27T14:57:16.852Z,100576.75
2023-04-27T15:01:18.545Z,100579.34
2023-04-27T15:05:20.196Z,100569.81
2023-04-27T15:09:21.736Z,100566.31
2023-04-27T15:13:24.579Z,100561.09
2023-04-27T15:17:26.121Z,100564.56
2023-04-27T15:21:27.835Z,100560.25
2023-04-27T15:25:29.407Z,100554.19
2023-04-27T15:29:31.194Z,100543.78
2023-04-27T15:33:32.779Z,100550.75
2023-04-27T15:37:36.384Z,100530.78
2023-04-27T15:41:38.058Z,100527.38
2023-04-27T15:45:39.646Z,100527.34
2023-04-27T15:49:49.901Z,100521.28
2023-04-27T15:53:58.789Z,100515.19
2023-04-27T15:58:00.515Z,100513.47
2023-04-27T16:02:02.084Z,100512.63
2023-04-27T16:06:03.957Z,100487.50
2023-04-27T16:14:08.218Z,100486.56
2023-04-27T16:18:09.833Z,100484.84
2023-04-27T16:22:11.947Z,100487.41
2023-04-27T16:26:13.526Z,100470.94
2023-04-27T16:30:15.116Z,100483.97
2023-04-27T16:34:16.682Z,100483.09
2023-04-27T16:38:18.254Z,100477.84
2023-04-27T16:42:20.668Z,100473.53
2023-04-27T16:46:22.428Z,100475.31
2023-04-27T16:50:24.427Z,100476.25
2023-04-27T16:54:26.146Z,100475.31
2023-04-27T16:58:29.398Z,100474.41
2023-04-27T17:02:31.181Z,100481.25
2023-04-27T17:06:32.963Z,100488.97
2023-04-27T17:10:36.650Z,100484.63
2023-04-27T17:14:39.007Z,100486.28
2023-04-27T17:18:40.604Z,100486.22
2023-04-27T17:22:42.151Z,100482.66
2023-04-27T17:26:43.797Z,100474.78
2023-04-27T17:30:45.572Z,100468.66
2023-04-27T17:34:47.231Z,100464.28
2023-04-27T17:38:48.875Z,100469.41
2023-04-27T17:42:50.441Z,100477.09
2023-04-27T17:46:52.304Z,100478.81
2023-04-27T17:50:54.164Z,100475.31
2023-04-27T17:54:56.492Z,100477.81
2023-04-27T17:58:58.127Z,100477.69
2023-04-27T18:02:59.761Z,100469.75
2023-04-27T18:07:01.390Z,100484.28
2023-04-27T18:11:03.053Z,100488.50
2023-04-27T18:15:06.962Z,100477.94
2023-04-27T18:19:10.376Z,100473.50
2023-04-27T18:23:12.032Z,100462.22
2023-04-27T18:27:16.623Z,100475.03
2023-04-27T18:31:20.197Z,100472.31
2023-04-27T18:35:22.075Z,100471.31
2023-04-27T18:39:23.831Z,100475.63
2023-04-27T18:43:25.551Z,100479.00
2023-04-27T18:47:27.150Z,100475.53
2023-04-27T18:51:29.319Z,100474.63
2023-04-27T18:55:30.944Z,100469.34
2023-04-27T18:59:32.614Z,100468.38
2023-04-27T19:03:34.784Z,100474.31
2023-04-27T19:07:36.405Z,100473.38
2023-04-27T19:11:38.122Z,100470.75
2023-04-27T19:15:40.036Z,100467.28
2023-04-27T19:19:41.686Z,100470.69
2023-04-27T19:23:45.097Z,100467.16
2023-04-27T19:27:46.745Z,100459.38
2023-04-27T19:31:48.386Z,100472.25
2023-04-27T19:35:49.954Z,100460.16
2023-04-27T19:39:51.638Z,100471.34
2023-04-27T19:43:53.253Z,100466.13
2023-04-27T19:47:54.941Z,100454.06
2023-04-27T19:51:56.514Z,100472.16
2023-04-27T19:56:00.969Z,100472.16
2023-04-27T20:00:05.204Z,100466.91
2023-04-27T20:04:15.311Z,100470.28
2023-04-27T20:08:17.129Z,100466.78
2023-04-27T20:12:40.220Z,100468.41
2023-04-27T20:16:40.347Z,100463.16
2023-04-27T20:20:42.632Z,100459.63
2023-04-27T20:24:45.210Z,100455.19
2023-04-27T20:28:47.063Z,100447.41
2023-04-27T20:32:48.802Z,100446.50
2023-04-27T20:36:52.991Z,100449.84
2023-04-27T20:40:54.727Z,100457.50
2023-04-27T20:44:56.272Z,100448.09
2023-04-27T20:48:57.815Z,100445.56
2023-04-27T20:52:59.415Z,100446.47
2023-04-27T20:57:01.916Z,100439.53
2023-04-27T21:01:03.678Z,100436.88
2023-04-27T21:05:05.613Z,100434.19
2023-04-27T21:09:07.430Z,100435.06
2023-04-27T21:13:09.487Z,100429.84
2023-04-27T21:17:11.545Z,100431.53
2023-04-27T21:21:13.213Z,100434.91
2023-04-27T21:25:15.041Z,100428.03
2023-04-27T21:29:16.616Z,100428.84
2023-04-27T21:33:18.315Z,100421.00
2023-04-27T21:37:19.865Z,100420.06
2023-04-27T21:41:21.693Z,100415.72
2023-04-27T21:45:23.421Z,100406.09
2023-04-27T21:49:25.010Z,100410.25
2023-04-27T21:53:26.940Z,100398.06
2023-04-27T21:57:28.809Z,100398.94
2023-04-27T22:01:30.794Z,100400.69
2023-04-27T22:05:33.513Z,100408.44
2023-04-27T22:09:35.721Z,100403.31
2023-04-27T22:13:37.489Z,100399.09
2023-04-27T22:17:39.648Z,100403.28
2023-04-27T22:21:41.262Z,100403.38
2023-04-27T22:25:43.387Z,100399.13
2023-04-27T22:29:45.239Z,100401.69
2023-04-27T22:33:47.177Z,100415.31
2023-04-27T22:37:49.550Z,100399.56
2023-04-27T22:41:51.375Z,100401.06
2023-04-27T22:45:53.099Z,100397.53
2023-04-27T22:49:55.574Z,100394.19
2023-04-27T22:53:57.224Z,100390.00
2023-04-27T22:57:58.905Z,100393.47
2023-04-27T23:02:00.591Z,100385.75
2023-04-27T23:06:02.223Z,100380.66
2023-04-27T23:10:04.745Z,100378.13
2023-04-27T23:14:08.257Z,100376.41
2023-04-27T23:18:09.920Z,100369.50
2023-04-27T23:22:11.657Z,100364.34
2023-04-27T23:26:16.679Z,100371.97
2023-04-27T23:30:18.316Z,100366.69
2023-04-27T23:34:19.997Z,100364.81
2023-04-27T23:38:21.517Z,100372.28
2023-04-27T23:42:23.166Z,100367.88
2023-04-27T23:46:24.780Z,100365.31
2023-04-27T23:50:26.393Z,100369.66
2023-04-27T23:54:32.103Z,100371.47
2023-04-27T23:58:33.659Z,100349.91
